Phoenix (PHX/KPHX)

Information

Location
Phoenix, AZ
Local Time
07:12 / 7:12 am
GMT Time
14:12 / 2:12 pm
Gates
Unassigned
No FAA reported delays
METAR KPHX 221351Z 11006KT 10SM SCT100 BKN170 08/04 A3017 RMK AO2 SLP212 T00780039
TAF KPHX 221120Z 2212/2312 11007KT P6SM OVC110 FM231000 10011KT P6SM VCSH BKN060 OVC100
  • No charts available